Aviation Digital Data Service (ADDS)

Output produced by METARs form (0714 UTC 26 March 2017)
found at http://aviationweather.gov/adds/metars/
 
KGNV 260540Z 2606/2706 10003KT P6SM FEW045 BKN250 
     TEMPO 2609/2612 3SM BR 
     FM261200 11003KT P6SM FEW025 BKN200 
     FM261500 14006KT P6SM SCT035 BKN120 
     FM261800 13006KT P6SM SCT045 BKN100 
     FM262100 12006KT P6SM BKN050 
     FM270000 08003KT P6SM BKN100